createdAt,value
2023-12-11T00:00:28.745Z,8.30
2023-12-11T00:02:56.703Z,10.70
2023-12-11T00:05:24.194Z,8.40
2023-12-11T00:07:51.799Z,7.90
2023-12-11T00:10:19.430Z,9.20
2023-12-11T00:12:46.943Z,9.30
2023-12-11T00:15:14.593Z,8.20
2023-12-11T00:17:42.209Z,9.90
2023-12-11T00:20:10.261Z,8.10
2023-12-11T00:22:37.895Z,9.50
2023-12-11T00:25:06.067Z,10.60
2023-12-11T00:27:34.110Z,13.30
2023-12-11T00:30:01.840Z,11.10
2023-12-11T00:32:29.427Z,13.00
2023-12-11T00:34:57.064Z,10.20
2023-12-11T00:37:24.650Z,12.80
2023-12-11T00:39:52.172Z,9.10
2023-12-11T00:42:19.720Z,13.30
2023-12-11T00:44:47.207Z,9.30
2023-12-11T00:47:14.758Z,16.20
2023-12-11T00:49:42.389Z,17.30
2023-12-11T00:52:10.077Z,17.40
2023-12-11T00:54:37.683Z,15.20
2023-12-11T00:57:05.230Z,13.10
2023-12-11T00:59:32.735Z,11.00
2023-12-11T01:02:00.394Z,12.40
2023-12-11T01:04:28.060Z,12.80
2023-12-11T01:06:55.697Z,12.70
2023-12-11T01:09:23.473Z,13.20
2023-12-11T01:11:50.994Z,6.90
2023-12-11T01:14:18.734Z,13.60
2023-12-11T01:16:46.414Z,11.30
2023-12-11T01:19:14.036Z,5.20
2023-12-11T01:21:41.733Z,8.30
2023-12-11T01:24:09.502Z,9.20
2023-12-11T01:26:36.983Z,12.90
2023-12-11T01:29:04.661Z,12.50
2023-12-11T01:31:32.299Z,15.30
2023-12-11T01:33:59.897Z,12.70
2023-12-11T01:36:27.587Z,7.00
2023-12-11T01:38:55.153Z,12.50
2023-12-11T01:41:22.704Z,7.60
2023-12-11T01:43:54.025Z,8.50
2023-12-11T01:46:21.698Z,7.20
2023-12-11T01:48:50.236Z,7.20
2023-12-11T01:51:18.204Z,9.70
2023-12-11T01:53:45.950Z,6.90
2023-12-11T01:56:13.596Z,7.80
2023-12-11T01:58:41.085Z,7.00
2023-12-11T02:01:09.164Z,8.00
2023-12-11T02:03:37.088Z,6.20
2023-12-11T02:06:04.794Z,7.70
2023-12-11T02:08:33.192Z,7.30
2023-12-11T02:11:00.722Z,5.00
2023-12-11T02:13:28.205Z,6.40
2023-12-11T02:15:56.084Z,6.90
2023-12-11T02:18:23.735Z,5.40
2023-12-11T02:20:51.453Z,6.10
2023-12-11T02:23:37.715Z,6.60
2023-12-11T02:26:15.359Z,5.90
2023-12-11T02:28:43.047Z,7.70
2023-12-11T02:31:10.845Z,4.90
2023-12-11T02:33:38.865Z,7.90
2023-12-11T02:36:06.876Z,5.90
2023-12-11T02:38:34.562Z,8.80
2023-12-11T02:41:02.324Z,7.10
2023-12-11T02:43:29.874Z,9.70
2023-12-11T02:45:57.515Z,7.40
2023-12-11T02:48:25.159Z,7.90
2023-12-11T02:50:52.751Z,8.10
2023-12-11T02:53:20.346Z,7.30
2023-12-11T02:55:48.029Z,7.50
2023-12-11T02:58:15.623Z,7.60
2023-12-11T03:00:43.625Z,6.60
2023-12-11T03:03:11.290Z,7.40
2023-12-11T03:05:38.898Z,6.80
2023-12-11T03:08:06.678Z,6.20
2023-12-11T03:10:34.356Z,7.10
2023-12-11T03:13:01.903Z,6.30
2023-12-11T03:15:31.159Z,8.70
2023-12-11T03:17:58.813Z,6.30
2023-12-11T03:20:26.378Z,5.60
2023-12-11T03:22:53.948Z,14.00
2023-12-11T03:25:21.492Z,6.10
2023-12-11T03:27:49.062Z,9.20
2023-12-11T03:30:17.020Z,5.50
2023-12-11T03:32:44.823Z,5.70
2023-12-11T03:35:12.386Z,5.10
2023-12-11T03:37:39.851Z,5.90
2023-12-11T03:40:07.815Z,9.60
2023-12-11T03:42:35.461Z,4.50
2023-12-11T03:45:03.011Z,4.70
2023-12-11T03:47:30.825Z,5.40
2023-12-11T03:49:58.631Z,3.40
2023-12-11T03:52:26.276Z,3.00
2023-12-11T03:54:53.948Z,2.20
2023-12-11T03:57:21.631Z,4.10
2023-12-11T03:59:49.114Z,2.90
2023-12-11T04:02:16.892Z,2.40
2023-12-11T04:04:44.730Z,5.90
2023-12-11T04:07:12.406Z,3.50
2023-12-11T04:09:40.669Z,3.80
2023-12-11T04:12:08.338Z,4.10
2023-12-11T04:14:35.889Z,6.70
2023-12-11T04:17:03.486Z,3.20
2023-12-11T04:19:31.068Z,3.80
2023-12-11T04:21:58.669Z,6.70
2023-12-11T04:24:26.270Z,6.30
2023-12-11T04:26:53.807Z,4.90
2023-12-11T04:29:21.461Z,5.80
2023-12-11T04:31:49.024Z,3.70
2023-12-11T04:34:16.644Z,5.70
2023-12-11T04:36:47.776Z,3.90
2023-12-11T04:39:15.625Z,5.90
2023-12-11T04:41:43.153Z,4.30
2023-12-11T04:44:10.653Z,4.60
2023-12-11T04:46:38.192Z,5.70
2023-12-11T04:49:05.888Z,5.20
2023-12-11T04:51:33.673Z,4.60
2023-12-11T04:54:01.573Z,5.40
2023-12-11T04:56:29.232Z,5.30
2023-12-11T04:58:56.853Z,4.60
2023-12-11T05:01:27.617Z,3.10
2023-12-11T05:03:55.330Z,4.20
2023-12-11T05:06:22.975Z,2.80
2023-12-11T05:08:50.584Z,3.00
2023-12-11T05:11:18.055Z,5.40
2023-12-11T05:13:45.604Z,4.00
2023-12-11T05:16:13.216Z,6.10
2023-12-11T05:18:41.308Z,4.00
2023-12-11T05:21:09.504Z,5.20
2023-12-11T05:23:37.269Z,12.80
2023-12-11T05:26:04.942Z,11.30
2023-12-11T05:28:32.482Z,16.40
2023-12-11T05:31:00.084Z,15.50
2023-12-11T05:33:27.868Z,16.40
2023-12-11T05:35:55.477Z,13.70
2023-12-11T05:38:23.010Z,15.40
2023-12-11T05:40:50.648Z,7.30
2023-12-11T05:43:18.291Z,12.50
2023-12-11T05:45:45.943Z,7.40
2023-12-11T05:48:13.721Z,8.30
2023-12-11T05:50:41.784Z,13.70
2023-12-11T05:53:09.327Z,7.40
2023-12-11T05:55:37.921Z,6.70
2023-12-11T05:58:05.580Z,5.20
2023-12-11T06:00:33.222Z,6.80
2023-12-11T06:03:00.747Z,10.50
2023-12-11T06:05:28.448Z,8.50
2023-12-11T06:07:55.966Z,5.70
2023-12-11T06:10:23.583Z,6.50
2023-12-11T06:12:51.691Z,6.60
2023-12-11T06:15:19.281Z,5.20
2023-12-11T06:17:46.895Z,7.60
2023-12-11T06:20:14.473Z,6.40
2023-12-11T06:22:42.065Z,6.80
2023-12-11T06:25:09.857Z,5.80
2023-12-11T06:27:37.468Z,5.60
2023-12-11T06:30:07.297Z,5.10
2023-12-11T06:32:38.131Z,7.10
2023-12-11T06:35:06.150Z,5.40
2023-12-11T06:37:33.843Z,4.90
2023-12-11T06:40:01.522Z,4.90
2023-12-11T06:42:29.082Z,5.50
2023-12-11T06:44:57.250Z,4.20
2023-12-11T06:47:24.982Z,4.80
2023-12-11T06:49:54.230Z,5.70
2023-12-11T06:52:21.960Z,6.20
2023-12-11T06:54:49.588Z,5.70
2023-12-11T06:57:17.043Z,8.30
2023-12-11T06:59:44.627Z,9.30
2023-12-11T07:02:12.415Z,6.50
2023-12-11T07:04:43.448Z,9.60
2023-12-11T07:07:11.110Z,8.90
2023-12-11T07:09:38.951Z,6.80
2023-12-11T07:12:06.712Z,7.70
2023-12-11T07:14:34.356Z,9.20
2023-12-11T07:17:01.994Z,5.50
2023-12-11T07:19:29.593Z,6.60
2023-12-11T07:21:57.192Z,7.40
2023-12-11T07:24:25.034Z,11.10
2023-12-11T07:26:53.282Z,14.50
2023-12-11T07:29:20.862Z,14.70
2023-12-11T07:31:48.537Z,14.00
2023-12-11T07:34:16.192Z,8.00
2023-12-11T07:36:43.861Z,14.20
2023-12-11T07:39:11.639Z,9.40
2023-12-11T07:41:39.256Z,11.90
2023-12-11T07:44:06.918Z,23.50
2023-12-11T07:46:34.554Z,21.90
2023-12-11T07:49:03.041Z,10.70
2023-12-11T07:51:30.674Z,12.60
2023-12-11T07:54:00.462Z,14.00
2023-12-11T07:56:28.490Z,22.60
2023-12-11T07:58:55.993Z,23.80
2023-12-11T08:01:23.749Z,23.10
2023-12-11T08:03:51.716Z,45.70
2023-12-11T08:06:19.597Z,34.90
2023-12-11T08:08:47.305Z,62.70
2023-12-11T08:11:19.048Z,33.00
2023-12-11T08:13:46.682Z,37.50
2023-12-11T08:16:14.933Z,21.10
2023-12-11T08:18:42.896Z,18.50
2023-12-11T08:21:10.809Z,13.50
2023-12-11T08:23:42.025Z,14.50
2023-12-11T08:26:10.641Z,7.50
2023-12-11T08:28:38.376Z,8.40
2023-12-11T08:31:06.178Z,9.50
2023-12-11T08:33:33.815Z,9.90
2023-12-11T08:36:01.538Z,5.50
2023-12-11T08:38:29.210Z,8.00
2023-12-11T08:40:56.787Z,9.40
2023-12-11T08:43:24.386Z,6.70
2023-12-11T08:45:52.182Z,9.10
2023-12-11T08:48:19.922Z,8.90
2023-12-11T08:50:49.889Z,10.50
2023-12-11T08:53:17.582Z,11.60
2023-12-11T08:55:45.150Z,10.70
2023-12-11T08:58:13.284Z,8.70
2023-12-11T09:00:41.399Z,8.30
2023-12-11T09:03:09.137Z,7.10
2023-12-11T09:05:36.976Z,7.70
2023-12-11T09:08:04.770Z,7.50
2023-12-11T09:10:32.315Z,7.80
2023-12-11T09:13:00.756Z,8.30
2023-12-11T09:15:28.645Z,8.50
2023-12-11T09:17:56.243Z,14.70
2023-12-11T09:20:23.989Z,11.70
2023-12-11T09:22:52.179Z,10.20
2023-12-11T09:25:19.778Z,10.70
2023-12-11T09:27:48.985Z,9.30
2023-12-11T09:30:16.841Z,8.70
2023-12-11T09:32:44.532Z,10.40
2023-12-11T09:35:12.378Z,7.00
2023-12-11T09:37:40.047Z,8.30
2023-12-11T09:40:08.341Z,7.20
2023-12-11T09:42:36.114Z,12.50
2023-12-11T09:45:04.748Z,8.70
2023-12-11T09:47:33.555Z,11.30
2023-12-11T09:50:01.572Z,11.00
2023-12-11T09:52:29.325Z,11.50
2023-12-11T09:54:56.837Z,10.40
2023-12-11T09:57:25.376Z,8.50
2023-12-11T09:59:53.031Z,6.30
2023-12-11T10:02:20.766Z,10.00
2023-12-11T10:05:04.912Z,14.90
2023-12-11T10:07:33.947Z,10.70
2023-12-11T10:10:19.444Z,10.00
2023-12-11T10:12:47.111Z,9.20
2023-12-11T10:15:24.473Z,11.00
2023-12-11T10:18:02.696Z,26.80
2023-12-11T10:20:30.980Z,20.40
2023-12-11T10:23:02.175Z,31.10
2023-12-11T10:25:31.824Z,32.20
2023-12-11T10:28:06.053Z,17.10
2023-12-11T10:30:35.160Z,15.90
2023-12-11T10:33:04.180Z,16.90
2023-12-11T10:35:32.427Z,10.70
2023-12-11T10:38:01.489Z,14.80
2023-12-11T10:40:42.072Z,21.20
2023-12-11T10:43:09.931Z,16.20
2023-12-11T10:45:37.695Z,11.80
2023-12-11T10:48:05.491Z,7.80
2023-12-11T10:50:33.191Z,9.30
2023-12-11T10:53:05.135Z,9.60
2023-12-11T10:55:34.548Z,9.20
2023-12-11T10:58:02.355Z,8.50
2023-12-11T11:00:31.651Z,8.20
2023-12-11T11:02:59.772Z,10.00
2023-12-11T11:05:28.347Z,9.80
2023-12-11T11:08:11.514Z,6.70
2023-12-11T11:10:43.886Z,7.50
2023-12-11T11:13:22.630Z,5.30
2023-12-11T11:15:56.396Z,4.90
2023-12-11T11:21:08.054Z,8.90
2023-12-11T11:23:43.524Z,10.20
2023-12-11T11:26:41.253Z,11.60
2023-12-11T11:29:09.066Z,11.30
2023-12-11T11:31:52.649Z,11.00
2023-12-11T11:34:46.860Z,5.90
2023-12-11T11:37:22.280Z,8.90
2023-12-11T11:39:59.440Z,6.00
2023-12-11T11:42:27.546Z,5.90
2023-12-11T11:44:55.690Z,8.90
2023-12-11T11:47:23.312Z,13.70
2023-12-11T11:49:50.983Z,10.30
2023-12-11T11:52:22.546Z,9.20
2023-12-11T11:54:50.097Z,7.50
2023-12-11T11:57:17.727Z,8.50
2023-12-11T11:59:45.670Z,6.80
2023-12-11T12:02:13.316Z,12.70
2023-12-11T12:04:41.006Z,13.50
2023-12-11T12:07:08.508Z,22.20
2023-12-11T12:09:36.184Z,20.00
2023-12-11T12:12:05.990Z,23.30
2023-12-11T12:14:33.701Z,15.20
2023-12-11T12:17:08.938Z,9.00
2023-12-11T12:19:36.599Z,10.60
2023-12-11T12:22:04.403Z,11.30
2023-12-11T12:24:32.099Z,10.80
2023-12-11T12:27:01.060Z,17.60
2023-12-11T12:29:29.339Z,14.00
2023-12-11T12:31:58.701Z,14.80
2023-12-11T12:34:26.640Z,15.20
2023-12-11T12:36:57.304Z,17.20
2023-12-11T12:39:24.817Z,8.40
2023-12-11T12:41:54.036Z,12.00
2023-12-11T12:44:22.956Z,11.60
2023-12-11T12:46:50.482Z,13.60
2023-12-11T12:49:18.709Z,12.00
2023-12-11T12:51:50.268Z,9.50
2023-12-11T12:54:17.889Z,12.80
2023-12-11T12:56:48.381Z,11.90
2023-12-11T12:59:16.076Z,9.80
2023-12-11T13:01:43.838Z,10.70
2023-12-11T13:04:12.107Z,8.80
2023-12-11T13:06:39.824Z,11.80
2023-12-11T13:09:10.050Z,10.30
2023-12-11T13:11:40.887Z,10.20
2023-12-11T13:14:08.998Z,11.60
2023-12-11T13:16:36.757Z,16.80
2023-12-11T13:19:04.491Z,12.80
2023-12-11T13:21:32.397Z,10.70
2023-12-11T13:24:01.257Z,16.10
2023-12-11T13:26:30.226Z,29.00
2023-12-11T13:28:57.922Z,21.40
2023-12-11T13:31:28.464Z,21.90
2023-12-11T13:33:56.251Z,32.20
2023-12-11T13:36:23.942Z,39.90
2023-12-11T13:38:51.590Z,45.20
2023-12-11T13:41:19.149Z,50.80
2023-12-11T13:43:46.716Z,57.10
2023-12-11T13:46:14.262Z,48.90
2023-12-11T13:48:42.255Z,35.80
2023-12-11T13:51:10.005Z,38.40
2023-12-11T13:53:37.899Z,40.00
2023-12-11T13:56:06.086Z,38.10
2023-12-11T13:58:33.746Z,33.50
2023-12-11T14:01:02.381Z,32.70
2023-12-11T14:03:31.491Z,31.10
2023-12-11T14:06:00.229Z,28.70
2023-12-11T14:08:28.132Z,39.00
2023-12-11T14:10:55.722Z,37.20
2023-12-11T14:13:23.342Z,40.30
2023-12-11T14:15:51.045Z,28.30
2023-12-11T14:18:18.860Z,36.30
2023-12-11T14:20:46.604Z,40.70
2023-12-11T14:23:14.569Z,48.80
2023-12-11T14:25:42.229Z,50.30
2023-12-11T14:28:10.267Z,45.70
2023-12-11T14:30:37.961Z,44.50
2023-12-11T14:33:06.378Z,41.50
2023-12-11T14:35:34.446Z,38.50
2023-12-11T14:38:02.096Z,31.10
2023-12-11T14:40:29.882Z,37.50
2023-12-11T14:42:57.687Z,40.50
2023-12-11T14:45:25.306Z,44.30
2023-12-11T14:47:53.071Z,28.10
2023-12-11T14:50:20.856Z,25.80
2023-12-11T14:52:48.538Z,24.40
2023-12-11T14:55:24.740Z,23.10
2023-12-11T14:57:54.395Z,29.70
2023-12-11T15:00:22.225Z,21.10
2023-12-11T15:02:49.844Z,27.50
2023-12-11T15:05:18.924Z,28.10
2023-12-11T15:07:46.674Z,25.80
2023-12-11T15:10:14.720Z,24.20
2023-12-11T15:12:42.511Z,31.30
2023-12-11T15:15:10.562Z,30.90
2023-12-11T15:17:38.180Z,30.30
2023-12-11T15:20:11.005Z,37.00
2023-12-11T15:22:38.746Z,31.20
2023-12-11T15:25:09.258Z,39.70
2023-12-11T15:27:36.862Z,41.50
2023-12-11T15:30:06.276Z,53.00
2023-12-11T15:32:34.544Z,41.90
2023-12-11T15:35:02.330Z,36.90
2023-12-11T15:37:30.825Z,48.90
2023-12-11T15:39:58.987Z,30.20
2023-12-11T15:42:26.932Z,36.20
2023-12-11T15:44:54.549Z,33.80
2023-12-11T15:47:22.257Z,30.10
2023-12-11T15:49:51.810Z,23.50
2023-12-11T15:52:19.679Z,30.20
2023-12-11T15:54:47.362Z,28.00
2023-12-11T15:57:14.910Z,20.10
2023-12-11T15:59:43.138Z,16.60
2023-12-11T16:02:11.189Z,15.50
2023-12-11T16:04:38.900Z,16.80
2023-12-11T16:07:06.572Z,16.10
2023-12-11T16:09:34.458Z,15.80
2023-12-11T16:12:01.975Z,16.70
2023-12-11T16:14:29.461Z,18.00
2023-12-11T16:16:57.224Z,15.90
2023-12-11T16:19:24.941Z,20.20
2023-12-11T16:21:52.699Z,18.90
2023-12-11T16:24:20.311Z,17.60
2023-12-11T16:26:47.888Z,16.80
2023-12-11T16:29:15.340Z,19.10
2023-12-11T16:31:43.214Z,16.40
2023-12-11T16:34:10.928Z,17.10
2023-12-11T16:36:39.417Z,17.20
2023-12-11T16:39:07.691Z,22.20
2023-12-11T16:41:35.270Z,16.40
2023-12-11T16:44:05.748Z,14.00
2023-12-11T16:46:33.416Z,17.30
2023-12-11T16:49:01.203Z,15.50
2023-12-11T16:51:28.946Z,18.70
2023-12-11T16:53:56.674Z,15.90
2023-12-11T16:56:24.234Z,20.00
2023-12-11T16:58:51.866Z,22.70
2023-12-11T17:01:19.711Z,31.10
2023-12-11T17:03:47.432Z,28.60
2023-12-11T17:06:15.889Z,43.80
2023-12-11T17:08:43.576Z,42.60
2023-12-11T17:11:11.377Z,50.70
2023-12-11T17:13:38.929Z,69.00
2023-12-11T17:16:06.874Z,65.20
2023-12-11T17:18:34.582Z,49.80
2023-12-11T17:21:03.811Z,52.90
2023-12-11T17:23:33.015Z,38.90
2023-12-11T17:26:01.325Z,37.40
2023-12-11T17:28:28.967Z,39.00
2023-12-11T17:30:56.967Z,37.40
2023-12-11T17:33:24.753Z,33.80
2023-12-11T17:35:52.350Z,32.20
2023-12-11T17:38:19.919Z,24.80
2023-12-11T17:40:47.548Z,26.80
2023-12-11T17:43:15.183Z,25.20
2023-12-11T17:45:42.814Z,19.60
2023-12-11T17:48:10.440Z,19.20
2023-12-11T17:50:38.081Z,25.30
2023-12-11T17:53:05.707Z,21.90
2023-12-11T17:55:33.359Z,20.00
2023-12-11T17:58:00.910Z,27.40
2023-12-11T18:00:28.578Z,27.60
2023-12-11T18:02:56.108Z,35.00
2023-12-11T18:05:23.673Z,34.60
2023-12-11T18:07:51.229Z,30.90
2023-12-11T18:10:19.398Z,32.80
2023-12-11T18:12:46.987Z,30.40
2023-12-11T18:15:14.521Z,38.00
2023-12-11T18:17:42.138Z,45.10
2023-12-11T18:20:10.361Z,40.80
2023-12-11T18:22:38.085Z,38.80
2023-12-11T18:25:05.935Z,33.30
2023-12-11T18:27:36.341Z,36.60
2023-12-11T18:30:04.276Z,34.90
2023-12-11T18:32:32.016Z,35.60
2023-12-11T18:35:01.971Z,26.00
2023-12-11T18:37:30.034Z,27.80
2023-12-11T18:39:57.750Z,30.40
2023-12-11T18:42:25.304Z,27.10
2023-12-11T18:44:53.158Z,28.50
2023-12-11T18:47:20.741Z,30.00
2023-12-11T18:49:48.573Z,23.70
2023-12-11T18:52:18.537Z,21.50
2023-12-11T18:54:46.202Z,21.40
2023-12-11T18:57:15.773Z,20.50
2023-12-11T18:59:44.560Z,18.80
2023-12-11T19:02:13.512Z,21.00
2023-12-11T19:04:41.503Z,20.90
2023-12-11T19:07:09.271Z,27.30
2023-12-11T19:09:36.813Z,22.20
2023-12-11T19:12:04.664Z,24.50
2023-12-11T19:14:32.281Z,23.30
2023-12-11T19:16:59.736Z,23.50
2023-12-11T19:19:27.406Z,25.30
2023-12-11T19:21:55.121Z,34.30
2023-12-11T19:24:22.773Z,22.70
2023-12-11T19:26:50.454Z,27.10
2023-12-11T19:29:18.941Z,38.80
2023-12-11T19:31:46.620Z,34.00
2023-12-11T19:34:14.556Z,39.50
2023-12-11T19:36:43.105Z,28.90
2023-12-11T19:39:10.913Z,27.50
2023-12-11T19:41:38.650Z,25.70
2023-12-11T19:44:06.657Z,22.20
2023-12-11T19:46:34.234Z,21.10
2023-12-11T19:49:01.920Z,34.50
2023-12-11T19:51:30.584Z,41.40
2023-12-11T19:53:58.163Z,54.20
2023-12-11T19:56:25.962Z,54.70
2023-12-11T19:58:53.605Z,45.40
2023-12-11T20:01:30.486Z,47.70
2023-12-11T20:03:58.351Z,47.00
2023-12-11T20:06:26.670Z,44.00
2023-12-11T20:08:54.406Z,52.20
2023-12-11T20:11:22.114Z,40.10
2023-12-11T20:13:50.563Z,33.90
2023-12-11T20:16:18.650Z,30.50
2023-12-11T20:18:46.846Z,27.30
2023-12-11T20:21:14.690Z,22.40
2023-12-11T20:23:42.703Z,18.70
2023-12-11T20:26:13.598Z,17.30
2023-12-11T20:28:41.367Z,14.30
2023-12-11T20:31:15.969Z,12.50
2023-12-11T20:33:43.658Z,9.70
2023-12-11T20:36:15.146Z,8.80
2023-12-11T20:38:42.922Z,9.60
2023-12-11T20:41:17.263Z,12.70
2023-12-11T20:43:45.364Z,11.20
2023-12-11T20:46:12.977Z,13.90
2023-12-11T20:48:40.643Z,10.80
2023-12-11T20:51:11.090Z,11.90
2023-12-11T20:53:39.291Z,10.80
2023-12-11T20:56:07.267Z,15.00
2023-12-11T20:58:35.017Z,17.00
2023-12-11T21:01:02.956Z,14.20
2023-12-11T21:03:30.501Z,15.20
2023-12-11T21:05:58.162Z,17.70
2023-12-11T21:08:26.820Z,18.10
2023-12-11T21:10:54.388Z,29.40
2023-12-11T21:13:21.891Z,52.60
2023-12-11T21:15:50.766Z,46.80
2023-12-11T21:20:47.553Z,37.10
2023-12-11T21:23:15.007Z,51.30
2023-12-11T21:25:43.021Z,62.50
2023-12-11T21:28:10.562Z,61.60
2023-12-11T21:30:38.104Z,48.40
2023-12-11T21:33:05.682Z,48.10
2023-12-11T21:35:33.274Z,44.50
2023-12-11T21:38:00.906Z,51.50
2023-12-11T21:40:28.553Z,57.70
2023-12-11T21:42:56.121Z,45.10
2023-12-11T21:45:23.749Z,41.90
2023-12-11T21:47:51.426Z,38.70
2023-12-11T21:50:19.026Z,47.20
2023-12-11T21:52:46.677Z,43.00
2023-12-11T21:55:14.910Z,35.20
2023-12-11T21:57:42.609Z,37.70
2023-12-11T22:00:10.405Z,48.70
2023-12-11T22:02:40.912Z,62.40
2023-12-11T22:05:08.614Z,53.40
2023-12-11T22:07:36.672Z,78.10
2023-12-11T22:10:07.255Z,71.80
2023-12-11T22:12:34.987Z,72.60
2023-12-11T22:15:02.676Z,58.30
2023-12-11T22:17:30.552Z,67.00
2023-12-11T22:19:58.504Z,62.60
2023-12-11T22:22:26.089Z,57.90
2023-12-11T22:24:53.690Z,54.20
2023-12-11T22:27:21.359Z,49.90
2023-12-11T22:29:49.092Z,38.50
2023-12-11T22:32:16.792Z,35.00
2023-12-11T22:34:44.507Z,19.20
2023-12-11T22:37:12.145Z,22.50
2023-12-11T22:39:43.150Z,15.70
2023-12-11T22:42:11.312Z,15.40
2023-12-11T22:44:38.904Z,9.90
2023-12-11T22:47:06.510Z,11.90
2023-12-11T22:49:34.241Z,10.50
2023-12-11T22:52:01.818Z,6.90
2023-12-11T22:54:29.910Z,4.80
2023-12-11T22:56:57.428Z,7.20
2023-12-11T22:59:24.900Z,8.00
2023-12-11T23:01:52.709Z,7.10
2023-12-11T23:04:20.458Z,7.80
2023-12-11T23:06:48.108Z,8.30
2023-12-11T23:09:15.682Z,8.70
2023-12-11T23:11:43.204Z,6.70
2023-12-11T23:14:11.037Z,5.90
2023-12-11T23:16:38.723Z,6.60
2023-12-11T23:19:06.481Z,6.20
2023-12-11T23:21:35.404Z,7.50
2023-12-11T23:24:02.977Z,8.10
2023-12-11T23:26:31.257Z,8.20
2023-12-11T23:28:58.743Z,7.40
2023-12-11T23:31:26.252Z,8.60
2023-12-11T23:33:54.013Z,7.80
2023-12-11T23:36:21.727Z,11.60
2023-12-11T23:38:49.250Z,7.40
2023-12-11T23:41:16.806Z,7.10
2023-12-11T23:43:44.361Z,9.10
2023-12-11T23:46:11.980Z,7.00
2023-12-11T23:48:39.684Z,9.80
2023-12-11T23:51:07.330Z,9.70
2023-12-11T23:53:34.878Z,7.30
2023-12-11T23:56:02.343Z,7.30
2023-12-11T23:58:29.808Z,6.20
